Time;durP1;ratioP1;P1;durP2;ratioP2;P2;SDS_P1;SDS_P2;PMS_P1;PMS_P2;Temp;Humidity;BMP_temperature;BMP_pressure;BME280_temperature;BME280_humidity;BME280_pressure;Samples;Min_cycle;Max_cycle;Signal;HPM_P1;HPM_P2
2022/04/12 00:00:25;;;;;;;17.63;10.43;;;7.30;99.90;;;;;;5041549;28;20500;-86
2022/04/12 00:02:51;;;;;;;15.07;10.03;;;7.30;99.90;;;;;;5030597;28;20495;-85
2022/04/12 00:05:18;;;;;;;16.60;10.67;;;7.30;99.90;;;;;;5049997;28;20052;-85
2022/04/12 00:07:44;;;;;;;20.43;11.47;;;7.30;99.90;;;;;;5041422;28;20032;-85
2022/04/12 00:10:11;;;;;;;16.10;11.20;;;7.30;99.90;;;;;;5021940;28;20056;-84
2022/04/12 00:12:40;;;;;;;17.20;10.80;;;7.20;99.90;;;;;;5025173;28;20032;-83
2022/04/12 00:15:08;;;;;;;18.70;12.13;;;7.20;99.90;;;;;;5032310;28;20045;-84
2022/04/12 00:20:19;;;;;;;16.13;11.00;;;7.10;99.90;;;;;;5083292;28;20076;-85
2022/04/12 00:22:46;;;;;;;20.80;11.50;;;7.10;99.90;;;;;;5040411;28;20131;-84
2022/04/12 00:25:12;;;;;;;15.47;10.50;;;7.10;99.90;;;;;;5040671;28;20487;-83
2022/04/12 00:27:40;;;;;;;20.00;12.17;;;7.10;99.90;;;;;;5024043;28;20087;-85
2022/04/12 00:30:08;;;;;;;21.63;12.27;;;7.10;99.90;;;;;;5025923;28;20854;-84
2022/04/12 00:32:35;;;;;;;19.40;12.23;;;7.00;99.90;;;;;;5033053;28;20052;-84
2022/04/12 00:35:01;;;;;;;19.13;12.07;;;7.00;99.90;;;;;;5039486;28;20048;-83
2022/04/12 00:37:27;;;;;;;19.10;11.80;;;7.00;99.90;;;;;;5041632;28;20105;-84
2022/04/12 00:39:53;;;;;;;23.57;12.60;;;6.90;99.90;;;;;;5004452;28;20955;-84
2022/04/12 00:42:20;;;;;;;17.93;11.97;;;6.90;99.90;;;;;;5042183;28;20029;-84
2022/04/12 00:44:46;;;;;;;18.70;13.03;;;6.90;99.90;;;;;;5037010;28;20044;-84
2022/04/12 00:47:13;;;;;;;19.33;13.40;;;6.90;99.90;;;;;;5038374;28;20070;-85
2022/04/12 00:49:39;;;;;;;17.60;11.83;;;6.90;99.90;;;;;;5036255;28;20055;-83
2022/04/12 00:52:06;;;;;;;22.47;12.07;;;6.90;99.90;;;;;;5037281;28;20055;-84
2022/04/12 00:54:33;;;;;;;18.30;12.50;;;6.80;99.90;;;;;;5017209;28;20053;-84
2022/04/12 00:57:00;;;;;;;22.23;12.10;;;6.90;99.90;;;;;;5040642;28;20052;-84
2022/04/12 00:59:26;;;;;;;20.10;12.40;;;6.80;99.90;;;;;;5038566;28;20107;-84
2022/04/12 01:01:52;;;;;;;18.43;12.73;;;6.80;99.90;;;;;;5037737;28;20041;-84
2022/04/12 01:04:19;;;;;;;20.03;13.10;;;6.80;99.90;;;;;;5029322;28;20516;-85
2022/04/12 01:06:46;;;;;;;19.37;12.10;;;6.80;99.90;;;;;;5039314;28;20276;-84
2022/04/12 01:09:12;;;;;;;18.77;12.97;;;6.80;99.90;;;;;;5033946;28;20055;-85
2022/04/12 01:11:39;;;;;;;22.47;12.93;;;6.70;99.90;;;;;;5040609;28;20399;-85
2022/04/12 01:14:07;;;;;;;17.70;12.67;;;6.70;99.90;;;;;;5038389;28;20049;-85
2022/04/12 01:16:33;;;;;;;19.47;13.20;;;6.70;99.90;;;;;;5019205;28;20056;-84
2022/04/12 01:18:59;;;;;;;18.57;13.93;;;6.70;99.90;;;;;;5033549;28;20060;-84
2022/04/12 01:21:31;;;;;;;20.30;12.77;;;6.70;99.90;;;;;;5034549;28;20048;-85
2022/04/12 01:24:04;;;;;;;20.00;12.60;;;6.70;99.90;;;;;;5038676;28;20072;-84
2022/04/12 01:26:30;;;;;;;18.27;12.27;;;6.70;99.90;;;;;;5017403;28;20099;-84
2022/04/12 01:28:57;;;;;;;18.40;12.13;;;6.60;99.90;;;;;;5018429;28;20056;-83
2022/04/12 01:31:26;;;;;;;22.27;12.80;;;6.60;99.90;;;;;;5040168;28;20049;-84
2022/04/12 01:33:53;;;;;;;19.17;13.17;;;6.60;99.90;;;;;;5026491;28;20056;-83
2022/04/12 01:36:19;;;;;;;17.40;11.83;;;6.60;99.90;;;;;;5036938;28;20046;-83
2022/04/12 01:38:45;;;;;;;20.63;11.77;;;6.60;99.90;;;;;;5017850;28;20048;-84
2022/04/12 01:41:12;;;;;;;19.93;12.93;;;6.60;99.90;;;;;;5023900;28;20082;-84
2022/04/12 01:43:38;;;;;;;17.40;12.20;;;6.50;99.90;;;;;;5015537;28;20448;-85
2022/04/12 01:46:04;;;;;;;20.23;12.10;;;6.60;99.90;;;;;;5031034;28;20078;-84
2022/04/12 01:48:30;;;;;;;22.00;12.83;;;6.50;99.90;;;;;;5000634;28;20048;-84
2022/04/12 01:50:56;;;;;;;20.73;12.67;;;6.50;99.90;;;;;;5018875;28;20047;-84
2022/04/12 01:53:21;;;;;;;17.17;12.50;;;6.50;99.90;;;;;;5029641;28;20056;-84
2022/04/12 01:55:47;;;;;;;16.03;12.30;;;6.50;99.90;;;;;;5032584;28;20070;-85
2022/04/12 01:58:13;;;;;;;18.73;12.60;;;6.50;99.90;;;;;;5035019;28;20045;-85
2022/04/12 02:00:40;;;;;;;16.77;11.77;;;6.50;99.90;;;;;;5036448;28;20115;-84
2022/04/12 02:03:06;;;;;;;18.10;11.93;;;6.50;99.90;;;;;;5036793;28;20053;-84
2022/04/12 02:05:32;;;;;;;23.77;13.37;;;6.40;99.90;;;;;;5034647;28;20055;-85
2022/04/12 02:07:58;;;;;;;19.73;12.17;;;6.40;99.90;;;;;;5037500;28;20151;-84
2022/04/12 02:10:23;;;;;;;20.80;13.33;;;6.40;99.90;;;;;;5036059;28;20037;-84
2022/04/12 02:12:49;;;;;;;17.87;11.77;;;6.30;99.90;;;;;;5015796;28;20045;-83
2022/04/12 02:15:16;;;;;;;19.37;12.40;;;6.30;99.90;;;;;;5014071;28;20044;-84
2022/04/12 02:17:42;;;;;;;19.47;12.47;;;6.20;99.90;;;;;;5035421;28;20564;-84
2022/04/12 02:20:08;;;;;;;17.73;12.57;;;6.20;99.90;;;;;;5015062;28;20065;-84
2022/04/12 02:22:35;;;;;;;19.97;12.33;;;6.10;99.90;;;;;;5016455;28;20044;-84
2022/04/12 02:25:01;;;;;;;21.00;13.13;;;6.10;99.90;;;;;;5017364;28;20116;-84
2022/04/12 02:27:27;;;;;;;19.37;11.90;;;6.10;99.90;;;;;;5040181;28;20051;-84
2022/04/12 02:29:53;;;;;;;17.60;11.93;;;6.10;99.90;;;;;;5004238;28;20041;-84
2022/04/12 02:32:18;;;;;;;19.67;12.30;;;6.10;99.90;;;;;;5037888;28;20511;-85
2022/04/12 02:34:44;;;;;;;18.93;13.47;;;6.00;99.90;;;;;;5036949;28;20041;-85
2022/04/12 02:37:10;;;;;;;18.03;11.57;;;6.00;99.90;;;;;;5038318;28;20095;-86
2022/04/12 02:39:36;;;;;;;20.73;13.27;;;6.00;99.90;;;;;;5040375;28;20045;-86
2022/04/12 02:42:02;;;;;;;18.90;12.60;;;6.00;99.90;;;;;;5039884;28;20052;-84
2022/04/12 02:44:28;;;;;;;19.53;12.10;;;6.00;99.90;;;;;;5038539;28;20056;-85
2022/04/12 02:46:54;;;;;;;19.47;11.53;;;6.00;99.90;;;;;;5040662;28;20061;-86
2022/04/12 02:49:19;;;;;;;20.40;12.87;;;6.00;99.90;;;;;;5013918;28;20037;-85
2022/04/12 02:51:46;;;;;;;18.87;12.03;;;6.00;99.90;;;;;;5037167;28;20053;-85
2022/04/12 02:54:12;;;;;;;17.97;12.20;;;6.00;99.90;;;;;;5040573;28;20067;-85
2022/04/12 02:56:38;;;;;;;20.13;13.03;;;6.00;99.90;;;;;;5040206;28;20083;-85
2022/04/12 02:59:04;;;;;;;17.77;12.27;;;6.00;99.90;;;;;;5034585;28;20053;-85
2022/04/12 03:01:30;;;;;;;20.07;12.57;;;5.90;99.90;;;;;;5024378;28;20047;-84
2022/04/12 03:03:56;;;;;;;18.63;12.03;;;5.90;99.90;;;;;;5024621;28;20918;-83
2022/04/12 03:06:22;;;;;;;21.57;13.17;;;5.90;99.90;;;;;;5040120;28;20102;-84
2022/04/12 03:08:48;;;;;;;18.63;12.20;;;5.90;99.90;;;;;;5040498;28;20051;-84
2022/04/12 03:11:14;;;;;;;20.07;12.73;;;5.90;99.90;;;;;;5039795;28;20048;-85
2022/04/12 03:13:39;;;;;;;18.57;12.90;;;5.80;99.90;;;;;;5033332;28;20045;-85
2022/04/12 03:16:05;;;;;;;18.50;12.80;;;5.80;99.90;;;;;;5031204;28;20121;-85
2022/04/12 03:18:31;;;;;;;21.40;12.93;;;5.80;99.90;;;;;;5040408;28;20036;-86
2022/04/12 03:20:57;;;;;;;20.90;12.73;;;5.90;99.90;;;;;;5041311;28;20392;-84
2022/04/12 03:23:23;;;;;;;19.27;12.20;;;5.90;99.90;;;;;;5023388;28;20092;-85
2022/04/12 03:25:51;;;;;;;19.27;11.83;;;5.80;99.90;;;;;;5036887;28;20051;-85
2022/04/12 03:28:17;;;;;;;19.40;11.43;;;5.80;99.90;;;;;;5009269;28;20055;-85
2022/04/12 03:30:43;;;;;;;18.90;13.07;;;5.80;99.90;;;;;;5040443;28;20052;-85
2022/04/12 03:33:09;;;;;;;18.03;12.27;;;5.70;99.90;;;;;;5038126;28;20052;-85
2022/04/12 03:35:35;;;;;;;25.77;13.23;;;5.70;99.90;;;;;;5034896;28;20043;-84
2022/04/12 03:38:01;;;;;;;20.47;12.20;;;5.70;99.90;;;;;;5040994;28;20083;-85
2022/04/12 03:40:31;;;;;;;18.13;12.67;;;5.60;99.90;;;;;;5040697;28;20037;-85
2022/04/12 03:43:01;;;;;;;17.37;11.90;;;5.60;99.90;;;;;;5043309;28;20040;-84
2022/04/12 03:45:28;;;;;;;18.40;12.70;;;5.60;99.90;;;;;;5039562;28;20056;-84
2022/04/12 03:47:54;;;;;;;18.50;12.33;;;5.60;99.90;;;;;;5040966;28;20084;-84
2022/04/12 03:50:19;;;;;;;17.33;11.80;;;5.60;99.90;;;;;;5037916;28;20045;-84
2022/04/12 03:52:45;;;;;;;19.30;11.87;;;5.60;99.90;;;;;;5036675;28;20079;-82
2022/04/12 03:55:11;;;;;;;18.57;11.73;;;5.60;99.90;;;;;;5026075;28;20546;-84
2022/04/12 03:57:37;;;;;;;18.97;12.23;;;5.60;99.90;;;;;;5040130;28;20037;-84
2022/04/12 04:00:08;;;;;;;19.67;12.87;;;5.60;99.90;;;;;;5026221;28;20535;-84
2022/04/12 04:02:36;;;;;;;19.93;12.53;;;5.50;99.90;;;;;;5016692;28;20176;-84
2022/04/12 04:05:03;;;;;;;19.90;12.67;;;5.50;99.90;;;;;;5021260;28;20107;-85
2022/04/12 04:07:28;;;;;;;19.40;13.03;;;5.50;99.90;;;;;;5042446;28;20518;-84
2022/04/12 04:09:54;;;;;;;19.67;12.43;;;5.50;99.90;;;;;;5036236;28;20064;-85
2022/04/12 04:12:22;;;;;;;19.40;12.10;;;5.50;99.90;;;;;;5005941;28;20040;-84
2022/04/12 04:14:49;;;;;;;20.80;13.63;;;5.50;99.90;;;;;;5041395;28;20044;-84
2022/04/12 04:17:14;;;;;;;20.03;12.93;;;5.40;99.90;;;;;;5030763;28;20048;-84
2022/04/12 04:19:40;;;;;;;22.53;12.97;;;5.40;99.90;;;;;;5029922;28;20055;-85
2022/04/12 04:22:07;;;;;;;19.30;12.83;;;5.40;99.90;;;;;;5033798;28;20036;-85
2022/04/12 04:24:33;;;;;;;19.13;12.90;;;5.50;99.90;;;;;;5040747;28;20044;-84
2022/04/12 04:26:59;;;;;;;19.47;12.47;;;5.50;99.90;;;;;;5031957;28;20082;-85
2022/04/12 04:29:27;;;;;;;22.23;13.80;;;5.50;99.90;;;;;;5040747;28;21775;-84
2022/04/12 04:31:53;;;;;;;21.43;12.10;;;5.40;99.90;;;;;;5037774;28;20070;-85
2022/04/12 04:34:19;;;;;;;20.60;14.73;;;5.40;99.90;;;;;;5042027;28;20052;-84
2022/04/12 04:36:45;;;;;;;21.87;13.93;;;5.40;99.90;;;;;;5037901;28;20078;-82
2022/04/12 04:39:11;;;;;;;23.77;13.80;;;5.40;99.90;;;;;;5039515;28;20635;-81
2022/04/12 04:41:37;;;;;;;21.07;13.00;;;5.40;99.90;;;;;;5023059;28;20123;-83
2022/04/12 04:44:03;;;;;;;19.27;12.87;;;5.50;99.90;;;;;;5041147;28;20053;-83
2022/04/12 04:46:29;;;;;;;22.07;13.73;;;5.50;99.90;;;;;;5040563;28;20094;-82
2022/04/12 04:48:55;;;;;;;22.10;13.23;;;5.40;99.90;;;;;;5024534;28;20040;-82
2022/04/12 04:51:21;;;;;;;19.27;13.07;;;5.40;99.90;;;;;;5051488;28;20206;-82
2022/04/12 04:53:55;;;;;;;20.97;12.97;;;5.40;99.90;;;;;;5028779;28;20071;-82
2022/04/12 04:56:21;;;;;;;21.23;13.47;;;5.40;99.90;;;;;;5005812;28;20044;-82
2022/04/12 04:58:47;;;;;;;20.80;13.27;;;5.40;99.90;;;;;;5037244;28;20100;-82
2022/04/12 05:01:13;;;;;;;18.93;13.40;;;5.40;99.90;;;;;;5014615;28;20041;-83
2022/04/12 05:03:39;;;;;;;18.43;12.67;;;5.30;99.90;;;;;;5018634;28;20048;-83
2022/04/12 05:06:05;;;;;;;17.87;12.20;;;5.30;99.90;;;;;;5044116;28;20120;-82
2022/04/12 05:08:31;;;;;;;17.30;12.23;;;5.30;99.90;;;;;;5030541;28;20036;-82
2022/04/12 05:10:56;;;;;;;23.27;14.70;;;5.20;99.90;;;;;;5019197;28;20047;-81
2022/04/12 05:13:22;;;;;;;18.87;12.93;;;5.20;99.90;;;;;;5032859;28;20059;-82
2022/04/12 05:15:48;;;;;;;20.00;13.00;;;5.20;99.90;;;;;;5004443;28;20048;-82
2022/04/12 05:18:14;;;;;;;20.43;13.87;;;5.20;99.90;;;;;;5001463;28;20436;-81
2022/04/12 05:20:39;;;;;;;21.80;12.73;;;5.20;99.90;;;;;;5025108;28;20043;-81
2022/04/12 05:23:05;;;;;;;22.77;13.37;;;5.20;99.90;;;;;;5019843;28;20047;-81
2022/04/12 05:25:31;;;;;;;19.50;12.83;;;5.20;99.90;;;;;;5031846;28;20044;-84
2022/04/12 05:27:57;;;;;;;21.00;12.37;;;5.20;99.90;;;;;;5039884;28;20033;-85
2022/04/12 05:30:23;;;;;;;21.33;13.10;;;5.20;99.90;;;;;;5032168;28;20045;-85
2022/04/12 05:32:48;;;;;;;22.67;13.07;;;5.20;99.90;;;;;;5031436;28;20036;-80
2022/04/12 05:35:14;;;;;;;20.47;13.20;;;5.20;99.90;;;;;;5020146;28;20051;-85
2022/04/12 05:37:46;;;;;;;18.40;12.83;;;5.30;99.90;;;;;;5039692;28;20495;-89
2022/04/12 05:40:13;;;;;;;21.05;13.27;;;5.40;99.90;;;;;;5017740;28;20033;-81
2022/04/12 05:42:39;;;;;;;19.80;12.50;;;5.50;99.90;;;;;;5038859;28;20040;-83
2022/04/12 05:45:09;;;;;;;20.43;13.60;;;5.60;99.90;;;;;;4998791;28;20056;-77
2022/04/12 05:47:53;;;;;;;20.27;12.33;;;5.70;99.90;;;;;;5038785;28;20049;-79
2022/04/12 05:50:24;;;;;;;22.50;13.00;;;5.90;99.90;;;;;;5038342;28;20045;-78
2022/04/12 05:52:50;;;;;;;20.93;12.47;;;6.10;99.90;;;;;;5032157;28;20052;-78
2022/04/12 05:55:18;;;;;;;19.97;13.23;;;6.20;99.90;;;;;;5052987;28;20431;-79
2022/04/12 05:57:59;;;;;;;17.73;12.23;;;6.30;99.90;;;;;;5022770;28;20048;-78
2022/04/12 06:00:34;;;;;;;22.63;12.50;;;6.50;99.90;;;;;;5060319;28;20061;-78
2022/04/12 06:03:02;;;;;;;18.67;12.17;;;6.60;99.90;;;;;;5057466;28;20044;-78
2022/04/12 06:05:30;;;;;;;19.33;12.33;;;6.70;99.90;;;;;;5042831;28;20045;-79
2022/04/12 06:07:56;;;;;;;18.70;12.27;;;6.70;99.90;;;;;;5037604;28;20230;-79
2022/04/12 06:10:23;;;;;;;18.80;12.80;;;6.80;99.90;;;;;;5042624;28;20079;-83
2022/04/12 06:12:51;;;;;;;21.07;13.17;;;6.90;99.90;;;;;;5041283;28;20045;-80
2022/04/12 06:15:18;;;;;;;23.37;12.13;;;7.00;99.90;;;;;;5056779;28;20045;-81
2022/04/12 06:17:44;;;;;;;19.57;11.87;;;7.00;99.90;;;;;;5052014;28;20048;-80
2022/04/12 06:20:13;;;;;;;22.03;12.50;;;7.00;99.90;;;;;;5057579;28;20052;-80
2022/04/12 06:22:39;;;;;;;19.50;12.00;;;7.00;99.90;;;;;;5033907;28;20052;-80
2022/04/12 06:25:06;;;;;;;19.30;12.27;;;7.10;99.90;;;;;;5025552;28;20633;-81
2022/04/12 06:27:42;;;;;;;19.37;11.97;;;7.20;99.90;;;;;;5038616;28;20488;-79
2022/04/12 06:30:16;;;;;;;18.80;11.90;;;7.30;99.90;;;;;;5035910;28;20055;-82
2022/04/12 06:32:43;;;;;;;17.60;11.43;;;7.40;99.90;;;;;;5036600;28;20108;-79
2022/04/12 06:35:10;;;;;;;18.60;12.30;;;7.50;99.90;;;;;;5042282;28;20568;-81
2022/04/12 06:37:37;;;;;;;22.20;12.00;;;7.50;99.90;;;;;;5044036;28;20079;-81
2022/04/12 06:40:04;;;;;;;17.73;11.93;;;7.60;99.90;;;;;;5040597;28;20053;-81
2022/04/12 06:42:30;;;;;;;19.67;11.77;;;7.70;99.90;;;;;;5041409;28;20045;-81
2022/04/12 06:44:56;;;;;;;19.47;11.33;;;7.80;99.90;;;;;;5032487;28;20044;-81
2022/04/12 06:47:22;;;;;;;19.07;11.60;;;7.90;99.90;;;;;;5045114;28;20048;-81
2022/04/12 06:49:50;;;;;;;16.50;10.80;;;8.00;99.90;;;;;;5024332;28;20048;-81
2022/04/12 06:52:20;;;;;;;17.50;11.10;;;8.10;99.90;;;;;;5028232;28;20211;-81
2022/04/12 06:54:47;;;;;;;20.17;12.17;;;8.10;99.90;;;;;;5037590;28;20232;-81
2022/04/12 06:57:13;;;;;;;19.33;11.13;;;8.20;99.90;;;;;;5038428;28;20068;-81
2022/04/12 06:59:39;;;;;;;19.43;12.10;;;8.30;99.90;;;;;;5041737;28;20093;-81
2022/04/12 07:02:05;;;;;;;17.70;11.40;;;8.30;99.90;;;;;;5023974;28;20045;-81
2022/04/12 07:04:31;;;;;;;16.00;10.90;;;8.30;99.90;;;;;;5057951;28;20048;-81
2022/04/12 07:06:58;;;;;;;15.70;11.07;;;8.40;99.90;;;;;;5056727;28;20045;-81
2022/04/12 07:09:27;;;;;;;16.23;11.13;;;8.40;99.90;;;;;;5023788;28;20045;-81
2022/04/12 07:11:53;;;;;;;16.60;11.23;;;8.40;99.90;;;;;;5008694;28;20048;-81
2022/04/12 07:14:19;;;;;;;21.83;11.23;;;8.40;99.90;;;;;;5040118;28;20574;-81
2022/04/12 07:16:45;;;;;;;16.77;11.07;;;8.50;99.90;;;;;;5041269;28;20355;-81
2022/04/12 07:19:10;;;;;;;18.40;11.83;;;8.50;99.90;;;;;;5040174;28;20079;-81
2022/04/12 07:21:36;;;;;;;17.83;11.40;;;8.50;99.90;;;;;;5041248;28;20048;-81
2022/04/12 07:24:05;;;;;;;15.87;11.53;;;8.60;99.90;;;;;;5040135;28;20049;-81
2022/04/12 07:26:32;;;;;;;18.37;12.20;;;8.70;99.90;;;;;;5027893;28;20044;-81
2022/04/12 07:28:58;;;;;;;16.77;10.90;;;8.80;99.90;;;;;;5040670;28;20060;-81
2022/04/12 07:31:25;;;;;;;18.17;12.00;;;8.90;99.90;;;;;;5058159;28;20045;-81
2022/04/12 07:33:51;;;;;;;15.30;11.03;;;9.00;99.90;;;;;;5024519;28;20041;-81
2022/04/12 07:36:16;;;;;;;16.57;11.57;;;9.20;99.90;;;;;;5023244;28;20048;-81
2022/04/12 07:38:42;;;;;;;19.07;11.50;;;9.30;99.90;;;;;;5040312;28;20096;-81
2022/04/12 07:41:09;;;;;;;18.47;11.33;;;9.50;99.90;;;;;;5023679;28;20088;-81
2022/04/12 07:43:38;;;;;;;15.33;11.27;;;9.60;99.90;;;;;;5024076;28;20036;-81
2022/04/12 07:46:04;;;;;;;18.37;11.07;;;9.80;99.90;;;;;;5023986;28;20056;-81
2022/04/12 07:48:30;;;;;;;16.97;10.80;;;10.00;99.90;;;;;;5040050;28;20083;-81
2022/04/12 07:50:56;;;;;;;16.10;10.33;;;10.10;99.90;;;;;;5019223;28;20124;-81
2022/04/12 07:53:21;;;;;;;17.10;11.13;;;10.30;99.90;;;;;;5022066;28;20053;-81
2022/04/12 07:55:47;;;;;;;15.00;10.17;;;10.40;99.90;;;;;;5026690;28;20060;-81
2022/04/12 07:58:15;;;;;;;15.50;10.37;;;10.60;99.90;;;;;;5025604;28;20064;-81
2022/04/12 08:00:42;;;;;;;16.97;10.47;;;10.70;99.90;;;;;;5043531;28;20139;-81
2022/04/12 08:03:08;;;;;;;13.23;9.93;;;10.90;99.90;;;;;;5040344;28;20463;-81
2022/04/12 08:05:34;;;;;;;16.93;10.17;;;11.00;99.90;;;;;;5042427;28;20044;-81
2022/04/12 08:08:01;;;;;;;15.93;10.27;;;11.10;99.90;;;;;;5027768;28;20083;-82
2022/04/12 08:10:27;;;;;;;14.70;9.90;;;11.20;99.90;;;;;;5059096;28;20044;-82
2022/04/12 08:12:52;;;;;;;15.23;10.10;;;11.30;99.90;;;;;;5023736;28;20036;-81
2022/04/12 08:15:18;;;;;;;16.40;10.00;;;11.40;99.90;;;;;;5022833;28;20045;-82
2022/04/12 08:17:45;;;;;;;14.97;10.20;;;11.60;99.90;;;;;;5042212;28;20040;-81
2022/04/12 08:20:13;;;;;;;14.53;9.77;;;11.70;99.90;;;;;;5041775;28;20492;-82
2022/04/12 08:22:40;;;;;;;15.03;9.80;;;11.80;99.90;;;;;;5042429;28;20044;-82
2022/04/12 08:25:07;;;;;;;15.37;10.23;;;11.90;99.90;;;;;;5026960;28;20048;-81
2022/04/12 08:27:33;;;;;;;17.03;10.47;;;12.10;99.90;;;;;;5041914;28;20040;-82
2022/04/12 08:29:59;;;;;;;16.43;9.80;;;12.10;99.90;;;;;;5043342;28;20055;-81
2022/04/12 08:32:25;;;;;;;15.57;9.50;;;12.20;99.90;;;;;;5031964;28;20077;-81
2022/04/12 08:34:51;;;;;;;13.77;9.93;;;12.30;99.90;;;;;;5039517;28;20048;-82
2022/04/12 08:37:17;;;;;;;14.10;10.00;;;12.40;99.90;;;;;;5023334;28;20053;-81
2022/04/12 08:39:43;;;;;;;13.20;9.57;;;12.50;99.90;;;;;;5026265;28;20047;-82
2022/04/12 08:42:08;;;;;;;14.77;9.53;;;12.60;99.90;;;;;;5027193;28;20115;-82
2022/04/12 08:44:36;;;;;;;15.10;9.87;;;12.70;99.90;;;;;;5041975;28;20032;-81
2022/04/12 08:47:06;;;;;;;15.07;9.60;;;12.70;99.90;;;;;;5075595;28;20523;-82
2022/04/12 08:49:35;;;;;;;14.60;9.90;;;12.90;99.90;;;;;;5058645;28;20052;-82
2022/04/12 08:52:02;;;;;;;14.47;10.07;;;13.00;99.90;;;;;;5059061;28;20068;-82
2022/04/12 08:54:28;;;;;;;13.80;9.93;;;13.10;99.90;;;;;;5076807;28;20447;-82
2022/04/12 08:56:54;;;;;;;13.97;10.67;;;13.20;99.90;;;;;;5025214;28;20526;-81
2022/04/12 08:59:20;;;;;;;15.47;11.10;;;13.30;99.90;;;;;;5010247;28;20048;-82
2022/04/12 09:01:50;;;;;;;14.53;10.87;;;13.50;99.90;;;;;;5021523;28;20041;-82
2022/04/12 09:04:16;;;;;;;12.63;9.70;;;13.70;99.90;;;;;;5033205;28;20052;-82
2022/04/12 09:07:07;;;;;;;14.23;10.00;;;13.80;99.90;;;;;;5057919;28;20078;-81
2022/04/12 09:09:33;;;;;;;17.13;10.05;;;14.00;99.90;;;;;;5041519;28;20098;-83
2022/04/12 09:12:06;;;;;;;15.13;10.00;;;14.00;99.90;;;;;;5022495;28;20045;-82
2022/04/12 09:14:52;;;;;;;13.53;9.90;;;14.10;99.90;;;;;;5039005;28;20048;-82
2022/04/12 09:17:36;;;;;;;15.10;10.00;;;14.10;96.10;;;;;;5042379;28;20112;-83
2022/04/12 09:20:19;;;;;;;13.40;9.30;;;14.20;95.30;;;;;;5041666;28;20051;-83
2022/04/12 09:22:46;;;;;;;13.23;9.70;;;14.30;95.00;;;;;;5051245;28;20037;-82
2022/04/12 09:25:15;;;;;;;14.43;10.40;;;14.40;97.70;;;;;;5042618;28;20040;-82
2022/04/12 09:27:44;;;;;;;14.57;9.87;;;14.40;94.40;;;;;;5041472;28;20045;-82
2022/04/12 09:30:14;;;;;;;14.10;9.80;;;14.50;97.20;;;;;;5038796;28;20055;-83
2022/04/12 09:32:44;;;;;;;14.07;9.77;;;14.60;94.20;;;;;;5034072;28;20047;-82
2022/04/12 09:35:10;;;;;;;13.23;9.93;;;14.60;94.60;;;;;;5040884;28;20047;-82
2022/04/12 09:37:38;;;;;;;15.67;9.37;;;14.70;94.30;;;;;;5039229;28;20056;-82
2022/04/12 09:40:13;;;;;;;14.83;10.37;;;14.80;93.20;;;;;;5021460;28;20069;-82
2022/04/12 09:42:44;;;;;;;12.67;9.40;;;14.80;93.30;;;;;;5037175;28;20045;-82
2022/04/12 09:45:24;;;;;;;12.55;9.27;;;14.80;92.50;;;;;;5040493;28;20139;-83
2022/04/12 09:47:55;;;;;;;15.40;9.67;;;14.80;89.60;;;;;;5041544;28;20075;-82
2022/04/12 09:50:22;;;;;;;15.10;10.67;;;14.80;93.00;;;;;;5025316;28;20049;-81
2022/04/12 09:52:55;;;;;;;14.27;10.20;;;14.90;93.60;;;;;;5040513;28;20083;-82
2022/04/12 09:55:45;;;;;;;13.43;9.37;;;15.00;94.20;;;;;;5041624;28;20147;-82
2022/04/12 09:58:16;;;;;;;13.43;9.37;;;15.20;92.40;;;;;;5057043;28;20090;-82
2022/04/12 10:00:43;;;;;;;16.47;10.03;;;15.40;96.00;;;;;;5041189;28;20067;-82
2022/04/12 10:03:15;;;;;;;14.50;9.53;;;15.50;94.90;;;;;;5041271;28;20044;-81
2022/04/12 10:05:43;;;;;;;12.73;9.70;;;15.60;88.10;;;;;;5040014;28;20079;-83
2022/04/12 10:08:13;;;;;;;13.97;9.53;;;15.80;93.20;;;;;;5041894;28;20108;-83
2022/04/12 10:10:43;;;;;;;19.42;10.00;;;16.00;92.90;;;;;;5040656;28;20048;-82
2022/04/12 10:13:10;;;;;;;13.52;9.23;;;16.00;89.90;;;;;;5011159;28;20051;-83
2022/04/12 10:15:37;;;;;;;12.15;9.13;;;16.10;90.10;;;;;;5051902;28;20563;-83
2022/04/12 10:18:03;;;;;;;13.32;8.95;;;16.10;87.10;;;;;;5041107;28;20102;-82
2022/04/12 10:20:30;;;;;;;11.90;9.45;;;16.20;89.30;;;;;;5041602;28;20072;-82
2022/04/12 10:22:58;;;;;;;14.43;9.48;;;16.30;90.30;;;;;;5040400;28;20108;-82
2022/04/12 10:25:24;;;;;;;13.80;9.50;;;16.20;86.00;;;;;;5042030;28;20076;-83
2022/04/12 10:28:03;;;;;;;12.73;9.55;;;16.30;87.40;;;;;;5057067;28;20052;-82
2022/04/12 10:30:31;;;;;;;15.75;10.00;;;16.40;85.90;;;;;;5040585;28;20048;-82
2022/04/12 10:33:07;;;;;;;13.75;9.88;;;16.50;86.20;;;;;;5023464;28;20136;-82
2022/04/12 10:35:42;;;;;;;14.30;9.65;;;16.60;81.50;;;;;;5040401;28;20052;-82
2022/04/12 10:38:13;;;;;;;13.60;10.40;;;16.60;82.60;;;;;;5041935;28;20803;-83
2022/04/12 10:40:44;;;;;;;13.20;9.93;;;16.70;84.00;;;;;;5040282;28;20052;-83
2022/04/12 10:43:29;;;;;;;13.32;10.00;;;16.80;81.10;;;;;;5052381;28;20084;-82
2022/04/12 10:45:57;;;;;;;15.18;10.57;;;16.90;85.10;;;;;;5034472;28;20729;-83
2022/04/12 10:48:29;;;;;;;13.27;9.80;;;17.00;83.60;;;;;;5027219;28;20076;-82
2022/04/12 10:50:56;;;;;;;13.10;10.00;;;17.00;78.50;;;;;;5058417;28;20052;-83
2022/04/12 10:53:40;;;;;;;14.18;10.90;;;17.10;82.10;;;;;;5059977;28;20067;-83
2022/04/12 10:56:12;;;;;;;14.23;9.98;;;17.10;76.70;;;;;;5044475;28;20061;-82
2022/04/12 10:58:38;;;;;;;12.75;10.00;;;17.20;78.60;;;;;;5041169;28;20055;-82
2022/04/12 11:01:08;;;;;;;12.55;9.27;;;17.30;80.00;;;;;;5039805;28;20056;-78
2022/04/12 11:03:40;;;;;;;11.57;9.45;;;17.20;79.10;;;;;;5044995;28;20056;-82
2022/04/12 11:06:13;;;;;;;11.65;9.77;;;17.30;80.40;;;;;;5043973;28;20416;-80
2022/04/12 11:08:40;;;;;;;12.40;9.70;;;17.40;79.20;;;;;;5049829;28;20053;-81
2022/04/12 11:11:09;;;;;;;14.90;9.38;;;17.50;75.90;;;;;;5041443;28;20036;-81
2022/04/12 11:13:35;;;;;;;13.63;9.82;;;17.60;76.60;;;;;;5044316;28;20119;-81
2022/04/12 11:16:06;;;;;;;14.65;9.98;;;17.70;77.40;;;;;;5041610;28;20049;-81
2022/04/12 11:18:56;;;;;;;12.45;10.32;;;17.90;78.10;;;;;;5060106;28;20048;-80
2022/04/12 11:21:23;;;;;;;12.35;10.10;;;17.90;73.80;;;;;;5061770;28;20040;-81
2022/04/12 11:24:00;;;;;;;12.88;9.85;;;17.90;74.40;;;;;;5044141;28;20099;-81
2022/04/12 11:26:41;;;;;;;12.18;9.32;;;18.10;74.70;;;;;;5044368;28;20123;-81
2022/04/12 11:29:28;;;;;;;12.50;10.15;;;18.20;76.00;;;;;;5040658;28;20048;-80
2022/04/12 11:31:55;;;;;;;13.13;9.27;;;18.50;77.40;;;;;;5043849;28;20393;-80
2022/04/12 11:34:23;;;;;;;14.90;10.23;;;18.60;74.90;;;;;;5062051;28;20056;-80
2022/04/12 11:37:03;;;;;;;11.82;9.35;;;18.60;72.90;;;;;;5044370;28;20040;-81
2022/04/12 11:39:31;;;;;;;15.23;10.65;;;18.70;73.80;;;;;;5044017;28;20051;-80
2022/04/12 11:42:02;;;;;;;14.18;9.93;;;18.70;75.50;;;;;;5044816;28;20052;-80
2022/04/12 11:44:28;;;;;;;13.82;9.27;;;18.70;72.70;;;;;;5043628;28;20051;-81
2022/04/12 11:47:01;;;;;;;11.30;8.75;;;18.60;72.70;;;;;;5043884;28;20052;-80
2022/04/12 11:49:29;;;;;;;14.85;10.27;;;18.70;72.20;;;;;;5034308;28;20051;-80
2022/04/12 11:51:56;;;;;;;16.83;9.93;;;18.60;72.60;;;;;;5043418;28;20106;-81
2022/04/12 11:54:24;;;;;;;14.65;9.40;;;18.50;73.10;;;;;;5043521;28;20053;-80
2022/04/12 11:57:13;;;;;;;17.25;9.65;;;18.50;71.30;;;;;;5059941;28;20080;-80
2022/04/12 11:59:51;;;;;;;13.70;9.68;;;18.50;68.50;;;;;;5035108;28;20037;-80
2022/04/12 12:02:25;;;;;;;12.20;9.23;;;18.50;69.90;;;;;;5051480;28;20063;-80
2022/04/12 12:04:57;;;;;;;13.98;9.15;;;18.50;70.60;;;;;;5059647;28;20045;-80
2022/04/12 12:07:25;;;;;;;14.88;9.20;;;18.60;70.10;;;;;;5044241;28;20036;-80
2022/04/12 12:09:56;;;;;;;14.23;9.88;;;18.50;69.50;;;;;;5025321;28;20044;-79
2022/04/12 12:12:30;;;;;;;14.05;9.25;;;18.50;68.80;;;;;;5044940;28;20059;-79
2022/04/12 12:14:56;;;;;;;17.88;10.43;;;18.60;68.50;;;;;;5043274;28;20072;-80
2022/04/12 12:17:25;;;;;;;15.95;10.10;;;18.50;69.50;;;;;;5026632;28;20045;-80
2022/04/12 12:19:50;;;;;;;14.07;9.43;;;18.50;71.00;;;;;;5036807;28;20048;-79
2022/04/12 12:22:17;;;;;;;14.68;9.93;;;18.60;69.70;;;;;;5026687;28;20393;-80
2022/04/12 12:24:57;;;;;;;15.18;10.13;;;18.70;69.50;;;;;;5053930;28;21426;-80
2022/04/12 12:27:34;;;;;;;15.05;10.57;;;18.90;70.20;;;;;;5041481;28;20058;-80
2022/04/12 12:30:07;;;;;;;16.02;11.32;;;19.10;70.50;;;;;;5040929;28;20166;-80
2022/04/12 12:32:43;;;;;;;15.48;10.00;;;19.20;69.20;;;;;;5026974;28;20048;-80
2022/04/12 12:35:14;;;;;;;16.05;10.38;;;19.40;70.60;;;;;;5058388;28;20045;-79
2022/04/12 12:37:42;;;;;;;15.07;10.00;;;19.50;67.80;;;;;;5025152;28;20056;-80
2022/04/12 12:40:30;;;;;;;15.32;10.18;;;19.60;67.90;;;;;;5041508;28;20305;-80
2022/04/12 12:42:56;;;;;;;15.13;10.60;;;19.70;66.10;;;;;;5027658;28;20044;-80